sensor_id;sensor_type;location;lat;lon;timestamp;P1;durP1;ratioP1;P2;durP2;ratioP2
22068;SDS011;13887;57.196;-2.100;2023-03-01T00:01:32;12.37;;;11.97;;
22068;SDS011;13887;57.196;-2.100;2023-03-01T00:04:00;11.70;;;11.30;;
22068;SDS011;13887;57.196;-2.100;2023-03-01T00:06:27;11.73;;;11.33;;
22068;SDS011;13887;57.196;-2.100;2023-03-01T00:08:55;11.80;;;11.40;;
22068;SDS011;13887;57.196;-2.100;2023-03-01T00:11:24;11.73;;;11.33;;
22068;SDS011;13887;57.196;-2.100;2023-03-01T00:13:55;12.20;;;11.80;;
22068;SDS011;13887;57.196;-2.100;2023-03-01T00:16:26;12.40;;;12.00;;
22068;SDS011;13887;57.196;-2.100;2023-03-01T00:19:02;11.80;;;11.40;;
22068;SDS011;13887;57.196;-2.100;2023-03-01T00:21:32;12.10;;;11.70;;
22068;SDS011;13887;57.196;-2.100;2023-03-01T00:24:01;12.10;;;11.70;;
22068;SDS011;13887;57.196;-2.100;2023-03-01T00:26:30;11.83;;;11.43;;
22068;SDS011;13887;57.196;-2.100;2023-03-01T00:29:00;11.93;;;11.53;;
22068;SDS011;13887;57.196;-2.100;2023-03-01T00:31:28;12.03;;;11.63;;
22068;SDS011;13887;57.196;-2.100;2023-03-01T00:33:57;12.30;;;11.90;;
22068;SDS011;13887;57.196;-2.100;2023-03-01T00:36:34;12.07;;;11.67;;
22068;SDS011;13887;57.196;-2.100;2023-03-01T00:39:04;12.27;;;11.87;;
22068;SDS011;13887;57.196;-2.100;2023-03-01T00:41:33;12.27;;;11.87;;
22068;SDS011;13887;57.196;-2.100;2023-03-01T00:44:01;12.07;;;11.67;;
22068;SDS011;13887;57.196;-2.100;2023-03-01T00:46:31;12.40;;;12.00;;
22068;SDS011;13887;57.196;-2.100;2023-03-01T00:48:59;12.80;;;12.40;;
22068;SDS011;13887;57.196;-2.100;2023-03-01T00:51:31;12.40;;;12.00;;
22068;SDS011;13887;57.196;-2.100;2023-03-01T00:54:03;12.67;;;12.27;;
22068;SDS011;13887;57.196;-2.100;2023-03-01T00:56:30;12.73;;;12.33;;
22068;SDS011;13887;57.196;-2.100;2023-03-01T00:58:59;12.07;;;11.67;;
22068;SDS011;13887;57.196;-2.100;2023-03-01T01:01:28;11.93;;;11.53;;
22068;SDS011;13887;57.196;-2.100;2023-03-01T01:04:00;11.93;;;11.53;;
22068;SDS011;13887;57.196;-2.100;2023-03-01T01:06:34;12.27;;;11.87;;
22068;SDS011;13887;57.196;-2.100;2023-03-01T01:09:05;12.37;;;11.97;;
22068;SDS011;13887;57.196;-2.100;2023-03-01T01:11:33;12.40;;;12.00;;
22068;SDS011;13887;57.196;-2.100;2023-03-01T01:14:04;12.57;;;12.17;;
22068;SDS011;13887;57.196;-2.100;2023-03-01T01:16:32;12.50;;;12.10;;
22068;SDS011;13887;57.196;-2.100;2023-03-01T01:19:01;12.40;;;12.00;;
22068;SDS011;13887;57.196;-2.100;2023-03-01T01:21:31;12.30;;;11.90;;
22068;SDS011;13887;57.196;-2.100;2023-03-01T01:23:58;12.37;;;11.97;;
22068;SDS011;13887;57.196;-2.100;2023-03-01T01:26:30;12.30;;;11.90;;
22068;SDS011;13887;57.196;-2.100;2023-03-01T01:28:59;12.27;;;11.87;;
22068;SDS011;13887;57.196;-2.100;2023-03-01T01:31:30;11.97;;;11.57;;
22068;SDS011;13887;57.196;-2.100;2023-03-01T01:34:02;12.10;;;11.70;;
22068;SDS011;13887;57.196;-2.100;2023-03-01T01:36:33;12.27;;;11.87;;
22068;SDS011;13887;57.196;-2.100;2023-03-01T01:39:01;12.80;;;12.40;;
22068;SDS011;13887;57.196;-2.100;2023-03-01T01:41:29;12.80;;;12.40;;
22068;SDS011;13887;57.196;-2.100;2023-03-01T01:44:16;12.73;;;12.33;;
22068;SDS011;13887;57.196;-2.100;2023-03-01T01:46:48;13.20;;;12.80;;
22068;SDS011;13887;57.196;-2.100;2023-03-01T01:49:35;12.83;;;12.43;;
22068;SDS011;13887;57.196;-2.100;2023-03-01T01:52:09;12.53;;;12.13;;
22068;SDS011;13887;57.196;-2.100;2023-03-01T01:54:45;12.87;;;12.47;;
22068;SDS011;13887;57.196;-2.100;2023-03-01T01:57:19;13.10;;;12.70;;
22068;SDS011;13887;57.196;-2.100;2023-03-01T01:59:54;12.70;;;12.30;;
22068;SDS011;13887;57.196;-2.100;2023-03-01T02:02:26;12.67;;;12.27;;
22068;SDS011;13887;57.196;-2.100;2023-03-01T02:04:55;12.77;;;12.37;;
22068;SDS011;13887;57.196;-2.100;2023-03-01T02:07:38;12.67;;;12.27;;
22068;SDS011;13887;57.196;-2.100;2023-03-01T02:10:06;12.77;;;12.37;;
22068;SDS011;13887;57.196;-2.100;2023-03-01T02:12:34;12.77;;;12.37;;
22068;SDS011;13887;57.196;-2.100;2023-03-01T02:15:03;12.90;;;12.50;;
22068;SDS011;13887;57.196;-2.100;2023-03-01T02:17:31;13.00;;;12.60;;
22068;SDS011;13887;57.196;-2.100;2023-03-01T02:22:37;13.20;;;12.80;;
22068;SDS011;13887;57.196;-2.100;2023-03-01T02:25:08;12.87;;;12.47;;
22068;SDS011;13887;57.196;-2.100;2023-03-01T02:31:06;12.70;;;12.30;;
22068;SDS011;13887;57.196;-2.100;2023-03-01T02:33:54;12.80;;;12.40;;
22068;SDS011;13887;57.196;-2.100;2023-03-01T02:36:22;12.57;;;12.17;;
22068;SDS011;13887;57.196;-2.100;2023-03-01T02:38:56;13.07;;;12.67;;
22068;SDS011;13887;57.196;-2.100;2023-03-01T02:41:26;12.40;;;12.00;;
22068;SDS011;13887;57.196;-2.100;2023-03-01T02:43:57;13.00;;;12.60;;
22068;SDS011;13887;57.196;-2.100;2023-03-01T02:46:25;12.97;;;12.57;;
22068;SDS011;13887;57.196;-2.100;2023-03-01T02:48:54;12.60;;;12.20;;
22068;SDS011;13887;57.196;-2.100;2023-03-01T02:54:21;12.60;;;12.20;;
22068;SDS011;13887;57.196;-2.100;2023-03-01T02:56:54;12.60;;;12.20;;
22068;SDS011;13887;57.196;-2.100;2023-03-01T02:59:24;12.43;;;12.03;;
22068;SDS011;13887;57.196;-2.100;2023-03-01T03:01:53;12.53;;;12.13;;
22068;SDS011;13887;57.196;-2.100;2023-03-01T03:04:24;12.60;;;12.20;;
22068;SDS011;13887;57.196;-2.100;2023-03-01T03:06:51;12.50;;;12.10;;
22068;SDS011;13887;57.196;-2.100;2023-03-01T03:09:18;12.47;;;12.07;;
22068;SDS011;13887;57.196;-2.100;2023-03-01T03:11:47;12.43;;;12.03;;
22068;SDS011;13887;57.196;-2.100;2023-03-01T03:14:15;12.53;;;12.13;;
22068;SDS011;13887;57.196;-2.100;2023-03-01T03:16:47;12.60;;;12.20;;
22068;SDS011;13887;57.196;-2.100;2023-03-01T03:19:16;12.17;;;11.77;;
22068;SDS011;13887;57.196;-2.100;2023-03-01T03:21:45;12.13;;;11.73;;
22068;SDS011;13887;57.196;-2.100;2023-03-01T03:24:16;11.83;;;11.43;;
22068;SDS011;13887;57.196;-2.100;2023-03-01T03:26:47;12.00;;;11.60;;
22068;SDS011;13887;57.196;-2.100;2023-03-01T03:29:14;12.33;;;11.93;;
22068;SDS011;13887;57.196;-2.100;2023-03-01T03:31:46;12.13;;;11.73;;
22068;SDS011;13887;57.196;-2.100;2023-03-01T03:34:16;11.87;;;11.47;;
22068;SDS011;13887;57.196;-2.100;2023-03-01T03:36:47;12.20;;;11.80;;
22068;SDS011;13887;57.196;-2.100;2023-03-01T03:39:14;12.10;;;11.70;;
22068;SDS011;13887;57.196;-2.100;2023-03-01T03:41:44;11.80;;;11.40;;
22068;SDS011;13887;57.196;-2.100;2023-03-01T03:44:11;11.90;;;11.50;;
22068;SDS011;13887;57.196;-2.100;2023-03-01T03:46:38;11.97;;;11.57;;
22068;SDS011;13887;57.196;-2.100;2023-03-01T03:49:08;12.37;;;11.97;;
22068;SDS011;13887;57.196;-2.100;2023-03-01T03:51:35;12.50;;;12.10;;
22068;SDS011;13887;57.196;-2.100;2023-03-01T03:54:02;11.90;;;11.50;;
22068;SDS011;13887;57.196;-2.100;2023-03-01T03:56:29;12.10;;;11.70;;
22068;SDS011;13887;57.196;-2.100;2023-03-01T03:58:57;12.37;;;11.97;;
22068;SDS011;13887;57.196;-2.100;2023-03-01T04:01:24;12.10;;;11.70;;
22068;SDS011;13887;57.196;-2.100;2023-03-01T04:03:53;12.33;;;11.93;;
22068;SDS011;13887;57.196;-2.100;2023-03-01T04:06:21;12.20;;;11.80;;
22068;SDS011;13887;57.196;-2.100;2023-03-01T04:08:48;12.37;;;11.97;;
22068;SDS011;13887;57.196;-2.100;2023-03-01T04:11:19;12.17;;;11.77;;
22068;SDS011;13887;57.196;-2.100;2023-03-01T04:13:54;12.10;;;11.70;;
22068;SDS011;13887;57.196;-2.100;2023-03-01T04:16:24;12.40;;;12.00;;
22068;SDS011;13887;57.196;-2.100;2023-03-01T04:18:53;12.27;;;11.87;;
22068;SDS011;13887;57.196;-2.100;2023-03-01T04:21:25;12.53;;;12.13;;
22068;SDS011;13887;57.196;-2.100;2023-03-01T04:23:52;12.40;;;12.00;;
22068;SDS011;13887;57.196;-2.100;2023-03-01T04:26:20;12.30;;;11.90;;
22068;SDS011;13887;57.196;-2.100;2023-03-01T04:28:47;12.63;;;12.23;;
22068;SDS011;13887;57.196;-2.100;2023-03-01T04:31:16;12.30;;;11.90;;
22068;SDS011;13887;57.196;-2.100;2023-03-01T04:33:49;12.40;;;12.00;;
22068;SDS011;13887;57.196;-2.100;2023-03-01T04:36:21;12.57;;;12.17;;
22068;SDS011;13887;57.196;-2.100;2023-03-01T04:38:54;12.40;;;12.00;;
22068;SDS011;13887;57.196;-2.100;2023-03-01T04:41:23;12.47;;;12.07;;
22068;SDS011;13887;57.196;-2.100;2023-03-01T04:43:51;12.47;;;12.07;;
22068;SDS011;13887;57.196;-2.100;2023-03-01T04:46:21;11.97;;;11.57;;
22068;SDS011;13887;57.196;-2.100;2023-03-01T04:48:52;12.40;;;12.00;;
22068;SDS011;13887;57.196;-2.100;2023-03-01T04:51:21;12.27;;;11.87;;
22068;SDS011;13887;57.196;-2.100;2023-03-01T04:53:48;12.20;;;11.80;;
22068;SDS011;13887;57.196;-2.100;2023-03-01T04:56:19;12.83;;;12.43;;
22068;SDS011;13887;57.196;-2.100;2023-03-01T04:58:49;12.40;;;12.00;;
22068;SDS011;13887;57.196;-2.100;2023-03-01T05:01:20;12.13;;;11.73;;
22068;SDS011;13887;57.196;-2.100;2023-03-01T05:03:48;12.30;;;11.90;;
22068;SDS011;13887;57.196;-2.100;2023-03-01T05:06:19;12.47;;;12.07;;
22068;SDS011;13887;57.196;-2.100;2023-03-01T05:08:49;12.33;;;11.93;;
22068;SDS011;13887;57.196;-2.100;2023-03-01T05:11:16;13.00;;;12.60;;
22068;SDS011;13887;57.196;-2.100;2023-03-01T05:13:44;13.10;;;12.70;;
22068;SDS011;13887;57.196;-2.100;2023-03-01T05:16:11;12.63;;;12.23;;
22068;SDS011;13887;57.196;-2.100;2023-03-01T05:18:40;12.87;;;12.47;;
22068;SDS011;13887;57.196;-2.100;2023-03-01T05:21:11;13.40;;;12.90;;
22068;SDS011;13887;57.196;-2.100;2023-03-01T05:23:43;12.90;;;12.50;;
22068;SDS011;13887;57.196;-2.100;2023-03-01T05:26:13;12.90;;;12.50;;
22068;SDS011;13887;57.196;-2.100;2023-03-01T05:28:54;13.07;;;12.67;;
22068;SDS011;13887;57.196;-2.100;2023-03-01T05:31:26;12.63;;;12.23;;
22068;SDS011;13887;57.196;-2.100;2023-03-01T05:33:53;12.90;;;12.50;;
22068;SDS011;13887;57.196;-2.100;2023-03-01T05:36:24;13.00;;;12.60;;
22068;SDS011;13887;57.196;-2.100;2023-03-01T05:38:51;12.73;;;12.33;;
22068;SDS011;13887;57.196;-2.100;2023-03-01T05:41:18;13.07;;;12.67;;
22068;SDS011;13887;57.196;-2.100;2023-03-01T05:43:45;12.83;;;12.43;;
22068;SDS011;13887;57.196;-2.100;2023-03-01T05:46:13;12.73;;;12.33;;
22068;SDS011;13887;57.196;-2.100;2023-03-01T05:48:41;12.97;;;12.57;;
22068;SDS011;13887;57.196;-2.100;2023-03-01T05:51:14;12.43;;;12.03;;
22068;SDS011;13887;57.196;-2.100;2023-03-01T05:53:43;12.90;;;12.50;;
22068;SDS011;13887;57.196;-2.100;2023-03-01T05:56:11;12.90;;;12.50;;
22068;SDS011;13887;57.196;-2.100;2023-03-01T05:58:38;12.83;;;12.43;;
22068;SDS011;13887;57.196;-2.100;2023-03-01T06:01:10;13.40;;;12.90;;
22068;SDS011;13887;57.196;-2.100;2023-03-01T06:03:38;13.70;;;13.20;;
22068;SDS011;13887;57.196;-2.100;2023-03-01T06:06:05;13.40;;;12.90;;
22068;SDS011;13887;57.196;-2.100;2023-03-01T06:08:35;13.00;;;12.60;;
22068;SDS011;13887;57.196;-2.100;2023-03-01T06:11:04;13.60;;;13.10;;
22068;SDS011;13887;57.196;-2.100;2023-03-01T06:13:36;13.07;;;12.63;;
22068;SDS011;13887;57.196;-2.100;2023-03-01T06:16:06;13.20;;;12.73;;
22068;SDS011;13887;57.196;-2.100;2023-03-01T06:18:34;13.13;;;12.70;;
22068;SDS011;13887;57.196;-2.100;2023-03-01T06:21:03;13.40;;;12.90;;
22068;SDS011;13887;57.196;-2.100;2023-03-01T06:23:34;13.50;;;13.00;;
22068;SDS011;13887;57.196;-2.100;2023-03-01T06:26:07;13.40;;;12.90;;
22068;SDS011;13887;57.196;-2.100;2023-03-01T06:28:35;13.47;;;12.97;;
22068;SDS011;13887;57.196;-2.100;2023-03-01T06:31:04;13.60;;;13.10;;
22068;SDS011;13887;57.196;-2.100;2023-03-01T06:33:35;13.50;;;13.00;;
22068;SDS011;13887;57.196;-2.100;2023-03-01T06:36:03;13.83;;;13.33;;
22068;SDS011;13887;57.196;-2.100;2023-03-01T06:38:30;13.60;;;13.10;;
22068;SDS011;13887;57.196;-2.100;2023-03-01T06:40:57;13.63;;;13.13;;
22068;SDS011;13887;57.196;-2.100;2023-03-01T06:43:24;13.80;;;13.30;;
22068;SDS011;13887;57.196;-2.100;2023-03-01T06:45:54;12.90;;;12.50;;
22068;SDS011;13887;57.196;-2.100;2023-03-01T06:48:21;13.03;;;12.63;;
22068;SDS011;13887;57.196;-2.100;2023-03-01T06:50:49;13.17;;;12.77;;
22068;SDS011;13887;57.196;-2.100;2023-03-01T06:53:16;13.13;;;12.73;;
22068;SDS011;13887;57.196;-2.100;2023-03-01T06:55:45;13.60;;;13.10;;
22068;SDS011;13887;57.196;-2.100;2023-03-01T06:58:12;13.70;;;13.20;;
22068;SDS011;13887;57.196;-2.100;2023-03-01T07:00:39;13.50;;;13.00;;
22068;SDS011;13887;57.196;-2.100;2023-03-01T07:03:10;13.13;;;12.73;;
22068;SDS011;13887;57.196;-2.100;2023-03-01T07:05:37;13.80;;;13.30;;
22068;SDS011;13887;57.196;-2.100;2023-03-01T07:08:04;13.13;;;12.73;;
22068;SDS011;13887;57.196;-2.100;2023-03-01T07:10:31;13.27;;;12.83;;
22068;SDS011;13887;57.196;-2.100;2023-03-01T07:13:01;13.60;;;13.10;;
22068;SDS011;13887;57.196;-2.100;2023-03-01T07:15:29;13.30;;;12.90;;
22068;SDS011;13887;57.196;-2.100;2023-03-01T07:17:56;13.10;;;12.70;;
22068;SDS011;13887;57.196;-2.100;2023-03-01T07:20:26;13.10;;;12.70;;
22068;SDS011;13887;57.196;-2.100;2023-03-01T07:22:55;12.63;;;12.23;;
22068;SDS011;13887;57.196;-2.100;2023-03-01T07:25:25;13.23;;;12.80;;
22068;SDS011;13887;57.196;-2.100;2023-03-01T07:27:52;12.37;;;11.97;;
22068;SDS011;13887;57.196;-2.100;2023-03-01T07:30:20;13.07;;;12.67;;
22068;SDS011;13887;57.196;-2.100;2023-03-01T07:32:48;12.93;;;12.53;;
22068;SDS011;13887;57.196;-2.100;2023-03-01T07:35:21;13.13;;;12.73;;
22068;SDS011;13887;57.196;-2.100;2023-03-01T07:37:49;12.90;;;12.50;;
22068;SDS011;13887;57.196;-2.100;2023-03-01T07:40:17;12.73;;;12.33;;
22068;SDS011;13887;57.196;-2.100;2023-03-01T07:42:44;13.40;;;12.90;;
22068;SDS011;13887;57.196;-2.100;2023-03-01T07:45:12;12.80;;;12.40;;
22068;SDS011;13887;57.196;-2.100;2023-03-01T07:47:39;12.73;;;12.33;;
22068;SDS011;13887;57.196;-2.100;2023-03-01T07:50:07;12.77;;;12.37;;
22068;SDS011;13887;57.196;-2.100;2023-03-01T07:52:35;12.23;;;11.83;;
22068;SDS011;13887;57.196;-2.100;2023-03-01T07:55:04;11.83;;;11.43;;
22068;SDS011;13887;57.196;-2.100;2023-03-01T07:57:31;12.17;;;11.77;;
22068;SDS011;13887;57.196;-2.100;2023-03-01T08:00:01;12.00;;;11.60;;
22068;SDS011;13887;57.196;-2.100;2023-03-01T08:02:37;10.60;;;10.30;;
22068;SDS011;13887;57.196;-2.100;2023-03-01T08:05:04;11.95;;;11.55;;
22068;SDS011;13887;57.196;-2.100;2023-03-01T08:07:32;12.90;;;12.50;;
22068;SDS011;13887;57.196;-2.100;2023-03-01T08:09:59;12.83;;;12.43;;
22068;SDS011;13887;57.196;-2.100;2023-03-01T08:12:27;12.83;;;12.43;;
22068;SDS011;13887;57.196;-2.100;2023-03-01T08:14:55;12.63;;;12.23;;
22068;SDS011;13887;57.196;-2.100;2023-03-01T08:17:23;12.80;;;12.40;;
22068;SDS011;13887;57.196;-2.100;2023-03-01T08:19:53;12.40;;;12.00;;
22068;SDS011;13887;57.196;-2.100;2023-03-01T08:22:20;12.30;;;11.90;;
22068;SDS011;13887;57.196;-2.100;2023-03-01T08:24:47;11.73;;;11.33;;
22068;SDS011;13887;57.196;-2.100;2023-03-01T08:27:15;11.77;;;11.37;;
22068;SDS011;13887;57.196;-2.100;2023-03-01T08:29:43;11.63;;;11.23;;
22068;SDS011;13887;57.196;-2.100;2023-03-01T08:32:10;11.90;;;11.50;;
22068;SDS011;13887;57.196;-2.100;2023-03-01T08:34:37;11.70;;;11.30;;
22068;SDS011;13887;57.196;-2.100;2023-03-01T08:37:06;11.40;;;11.00;;
22068;SDS011;13887;57.196;-2.100;2023-03-01T08:39:33;11.43;;;11.03;;
22068;SDS011;13887;57.196;-2.100;2023-03-01T08:42:00;11.57;;;11.17;;
22068;SDS011;13887;57.196;-2.100;2023-03-01T08:44:27;11.40;;;11.00;;
22068;SDS011;13887;57.196;-2.100;2023-03-01T08:46:54;11.10;;;10.80;;
22068;SDS011;13887;57.196;-2.100;2023-03-01T08:49:22;11.50;;;11.10;;
22068;SDS011;13887;57.196;-2.100;2023-03-01T08:51:50;12.33;;;11.93;;
22068;SDS011;13887;57.196;-2.100;2023-03-01T08:54:20;12.13;;;11.73;;
22068;SDS011;13887;57.196;-2.100;2023-03-01T08:56:48;11.63;;;11.23;;
22068;SDS011;13887;57.196;-2.100;2023-03-01T08:59:16;11.53;;;11.13;;
22068;SDS011;13887;57.196;-2.100;2023-03-01T09:01:44;12.03;;;11.63;;
22068;SDS011;13887;57.196;-2.100;2023-03-01T09:04:12;12.30;;;11.90;;
22068;SDS011;13887;57.196;-2.100;2023-03-01T09:06:42;12.20;;;11.80;;
22068;SDS011;13887;57.196;-2.100;2023-03-01T09:09:16;12.47;;;12.07;;
22068;SDS011;13887;57.196;-2.100;2023-03-01T09:11:44;12.70;;;12.30;;
22068;SDS011;13887;57.196;-2.100;2023-03-01T09:14:13;12.67;;;12.27;;
22068;SDS011;13887;57.196;-2.100;2023-03-01T09:16:43;12.03;;;11.63;;
22068;SDS011;13887;57.196;-2.100;2023-03-01T09:19:14;12.47;;;12.07;;
22068;SDS011;13887;57.196;-2.100;2023-03-01T09:21:42;12.00;;;11.60;;
22068;SDS011;13887;57.196;-2.100;2023-03-01T09:24:20;11.90;;;11.50;;
22068;SDS011;13887;57.196;-2.100;2023-03-01T09:26:48;12.37;;;11.97;;
22068;SDS011;13887;57.196;-2.100;2023-03-01T09:29:17;12.77;;;12.37;;
22068;SDS011;13887;57.196;-2.100;2023-03-01T09:31:44;12.70;;;12.30;;
22068;SDS011;13887;57.196;-2.100;2023-03-01T09:34:11;11.83;;;11.43;;
22068;SDS011;13887;57.196;-2.100;2023-03-01T09:36:40;12.60;;;12.20;;
22068;SDS011;13887;57.196;-2.100;2023-03-01T09:39:12;12.37;;;11.97;;
22068;SDS011;13887;57.196;-2.100;2023-03-01T09:41:50;12.63;;;12.23;;
22068;SDS011;13887;57.196;-2.100;2023-03-01T09:44:32;12.50;;;12.10;;
22068;SDS011;13887;57.196;-2.100;2023-03-01T09:47:33;12.40;;;12.00;;
22068;SDS011;13887;57.196;-2.100;2023-03-01T09:50:06;13.00;;;12.60;;
22068;SDS011;13887;57.196;-2.100;2023-03-01T09:55:45;12.40;;;12.00;;
22068;SDS011;13887;57.196;-2.100;2023-03-01T10:03:43;12.27;;;11.87;;
22068;SDS011;13887;57.196;-2.100;2023-03-01T10:06:27;12.57;;;12.17;;
22068;SDS011;13887;57.196;-2.100;2023-03-01T10:09:02;11.77;;;11.37;;
22068;SDS011;13887;57.196;-2.100;2023-03-01T10:11:44;12.03;;;11.63;;
22068;SDS011;13887;57.196;-2.100;2023-03-01T10:14:17;12.10;;;11.70;;
22068;SDS011;13887;57.196;-2.100;2023-03-01T10:20:20;12.63;;;12.23;;
22068;SDS011;13887;57.196;-2.100;2023-03-01T10:23:00;12.60;;;12.20;;
22068;SDS011;13887;57.196;-2.100;2023-03-01T10:28:53;12.17;;;11.77;;
22068;SDS011;13887;57.196;-2.100;2023-03-01T10:31:23;12.60;;;12.20;;
22068;SDS011;13887;57.196;-2.100;2023-03-01T10:34:08;12.30;;;11.90;;
22068;SDS011;13887;57.196;-2.100;2023-03-01T10:36:48;12.50;;;12.10;;
22068;SDS011;13887;57.196;-2.100;2023-03-01T10:39:18;11.90;;;11.50;;
22068;SDS011;13887;57.196;-2.100;2023-03-01T10:42:18;12.00;;;11.60;;
22068;SDS011;13887;57.196;-2.100;2023-03-01T10:44:53;12.37;;;11.97;;
22068;SDS011;13887;57.196;-2.100;2023-03-01T10:49:59;12.50;;;12.10;;
22068;SDS011;13887;57.196;-2.100;2023-03-01T10:58:19;12.20;;;11.80;;
22068;SDS011;13887;57.196;-2.100;2023-03-01T11:00:52;12.63;;;12.23;;
22068;SDS011;13887;57.196;-2.100;2023-03-01T11:05:58;12.40;;;12.00;;
22068;SDS011;13887;57.196;-2.100;2023-03-01T11:11:06;12.30;;;11.90;;
22068;SDS011;13887;57.196;-2.100;2023-03-01T11:19:31;11.93;;;11.53;;
22068;SDS011;13887;57.196;-2.100;2023-03-01T11:22:18;12.00;;;11.60;;
22068;SDS011;13887;57.196;-2.100;2023-03-01T11:24:50;12.37;;;11.97;;
22068;SDS011;13887;57.196;-2.100;2023-03-01T11:27:37;12.30;;;11.90;;
22068;SDS011;13887;57.196;-2.100;2023-03-01T11:32:50;12.00;;;11.60;;
22068;SDS011;13887;57.196;-2.100;2023-03-01T11:35:26;12.50;;;12.10;;
22068;SDS011;13887;57.196;-2.100;2023-03-01T11:38:15;12.17;;;11.77;;
22068;SDS011;13887;57.196;-2.100;2023-03-01T11:40:44;12.13;;;11.73;;
22068;SDS011;13887;57.196;-2.100;2023-03-01T11:49:08;12.10;;;11.70;;
22068;SDS011;13887;57.196;-2.100;2023-03-01T11:55:16;12.27;;;11.87;;
22068;SDS011;13887;57.196;-2.100;2023-03-01T12:09:17;12.53;;;12.13;;
22068;SDS011;13887;57.196;-2.100;2023-03-01T12:17:55;12.77;;;12.37;;
22068;SDS011;13887;57.196;-2.100;2023-03-01T12:30:16;12.80;;;12.40;;
22068;SDS011;13887;57.196;-2.100;2023-03-01T12:35:49;12.90;;;12.50;;
22068;SDS011;13887;57.196;-2.100;2023-03-01T12:49:41;12.97;;;12.57;;
22068;SDS011;13887;57.196;-2.100;2023-03-01T12:54:51;12.90;;;12.50;;
22068;SDS011;13887;57.196;-2.100;2023-03-01T12:57:30;12.80;;;12.40;;
22068;SDS011;13887;57.196;-2.100;2023-03-01T13:02:52;12.67;;;12.27;;
22068;SDS011;13887;57.196;-2.100;2023-03-01T13:11:00;12.90;;;12.50;;
22068;SDS011;13887;57.196;-2.100;2023-03-01T13:13:30;12.60;;;12.20;;
22068;SDS011;13887;57.196;-2.100;2023-03-01T13:16:19;12.80;;;12.40;;
22068;SDS011;13887;57.196;-2.100;2023-03-01T13:21:44;12.70;;;12.30;;
22068;SDS011;13887;57.196;-2.100;2023-03-01T13:29:45;12.60;;;12.20;;
22068;SDS011;13887;57.196;-2.100;2023-03-01T13:32:29;11.67;;;11.27;;
22068;SDS011;13887;57.196;-2.100;2023-03-01T13:37:47;12.53;;;12.13;;
22068;SDS011;13887;57.196;-2.100;2023-03-01T13:42:49;12.67;;;12.27;;
22068;SDS011;13887;57.196;-2.100;2023-03-01T13:50:53;12.70;;;12.30;;
22068;SDS011;13887;57.196;-2.100;2023-03-01T13:53:25;13.17;;;12.77;;
22068;SDS011;13887;57.196;-2.100;2023-03-01T13:55:58;12.50;;;12.10;;
22068;SDS011;13887;57.196;-2.100;2023-03-01T14:03:54;12.67;;;12.27;;
22068;SDS011;13887;57.196;-2.100;2023-03-01T14:06:24;12.83;;;12.43;;
22068;SDS011;13887;57.196;-2.100;2023-03-01T14:09:15;12.27;;;11.87;;
22068;SDS011;13887;57.196;-2.100;2023-03-01T14:22:54;12.23;;;11.83;;
22068;SDS011;13887;57.196;-2.100;2023-03-01T14:25:32;12.20;;;11.80;;
22068;SDS011;13887;57.196;-2.100;2023-03-01T14:28:13;12.57;;;12.17;;
22068;SDS011;13887;57.196;-2.100;2023-03-01T14:30:45;12.90;;;12.50;;
22068;SDS011;13887;57.196;-2.100;2023-03-01T14:33:21;12.20;;;11.80;;
22068;SDS011;13887;57.196;-2.100;2023-03-01T14:36:11;12.67;;;12.27;;
22068;SDS011;13887;57.196;-2.100;2023-03-01T14:38:40;12.43;;;12.03;;
22068;SDS011;13887;57.196;-2.100;2023-03-01T14:41:17;13.03;;;12.63;;
22068;SDS011;13887;57.196;-2.100;2023-03-01T14:43:53;12.67;;;12.27;;
22068;SDS011;13887;57.196;-2.100;2023-03-01T14:49:12;12.00;;;11.60;;
22068;SDS011;13887;57.196;-2.100;2023-03-01T14:51:43;12.60;;;12.20;;
22068;SDS011;13887;57.196;-2.100;2023-03-01T14:54:45;11.93;;;11.53;;
22068;SDS011;13887;57.196;-2.100;2023-03-01T14:57:22;12.10;;;11.70;;
22068;SDS011;13887;57.196;-2.100;2023-03-01T14:59:57;12.30;;;11.90;;
22068;SDS011;13887;57.196;-2.100;2023-03-01T15:02:27;12.10;;;11.70;;
22068;SDS011;13887;57.196;-2.100;2023-03-01T15:05:00;11.73;;;11.33;;
22068;SDS011;13887;57.196;-2.100;2023-03-01T15:07:38;11.50;;;11.10;;
22068;SDS011;13887;57.196;-2.100;2023-03-01T15:10:16;12.17;;;11.77;;
22068;SDS011;13887;57.196;-2.100;2023-03-01T15:12:51;12.20;;;11.80;;
22068;SDS011;13887;57.196;-2.100;2023-03-01T15:17:58;12.53;;;12.13;;
22068;SDS011;13887;57.196;-2.100;2023-03-01T15:20:28;12.23;;;11.83;;
22068;SDS011;13887;57.196;-2.100;2023-03-01T15:22:58;12.60;;;12.20;;
22068;SDS011;13887;57.196;-2.100;2023-03-01T15:25:28;11.80;;;11.40;;
22068;SDS011;13887;57.196;-2.100;2023-03-01T15:27:58;12.17;;;11.77;;
22068;SDS011;13887;57.196;-2.100;2023-03-01T15:30:34;12.43;;;12.03;;
22068;SDS011;13887;57.196;-2.100;2023-03-01T15:36:29;12.63;;;12.23;;
22068;SDS011;13887;57.196;-2.100;2023-03-01T15:41:54;12.40;;;12.00;;
22068;SDS011;13887;57.196;-2.100;2023-03-01T15:44:29;12.20;;;11.80;;
22068;SDS011;13887;57.196;-2.100;2023-03-01T15:47:28;12.70;;;12.30;;
22068;SDS011;13887;57.196;-2.100;2023-03-01T15:49:57;12.30;;;11.90;;
22068;SDS011;13887;57.196;-2.100;2023-03-01T15:52:34;12.60;;;12.20;;
22068;SDS011;13887;57.196;-2.100;2023-03-01T15:55:07;12.50;;;12.10;;
22068;SDS011;13887;57.196;-2.100;2023-03-01T15:57:43;11.70;;;11.30;;
22068;SDS011;13887;57.196;-2.100;2023-03-01T16:00:11;12.33;;;11.93;;
22068;SDS011;13887;57.196;-2.100;2023-03-01T16:02:41;12.57;;;12.17;;
22068;SDS011;13887;57.196;-2.100;2023-03-01T16:05:15;12.33;;;11.93;;
22068;SDS011;13887;57.196;-2.100;2023-03-01T16:07:46;12.53;;;12.13;;
22068;SDS011;13887;57.196;-2.100;2023-03-01T16:10:16;12.10;;;11.70;;
22068;SDS011;13887;57.196;-2.100;2023-03-01T16:12:48;12.57;;;12.17;;
22068;SDS011;13887;57.196;-2.100;2023-03-01T16:15:33;12.70;;;12.30;;
22068;SDS011;13887;57.196;-2.100;2023-03-01T16:18:02;12.20;;;11.80;;
22068;SDS011;13887;57.196;-2.100;2023-03-01T16:20:29;12.30;;;11.90;;
22068;SDS011;13887;57.196;-2.100;2023-03-01T16:23:04;13.23;;;12.83;;
22068;SDS011;13887;57.196;-2.100;2023-03-01T16:25:37;12.77;;;12.37;;
22068;SDS011;13887;57.196;-2.100;2023-03-01T16:28:07;13.17;;;12.77;;
22068;SDS011;13887;57.196;-2.100;2023-03-01T16:30:38;13.30;;;12.83;;
22068;SDS011;13887;57.196;-2.100;2023-03-01T16:33:08;13.63;;;13.13;;
22068;SDS011;13887;57.196;-2.100;2023-03-01T16:35:53;13.03;;;12.63;;
22068;SDS011;13887;57.196;-2.100;2023-03-01T16:38:24;12.90;;;12.50;;
22068;SDS011;13887;57.196;-2.100;2023-03-01T16:40:51;13.07;;;12.67;;
22068;SDS011;13887;57.196;-2.100;2023-03-01T16:43:18;13.50;;;13.00;;
22068;SDS011;13887;57.196;-2.100;2023-03-01T16:45:48;13.50;;;13.00;;
22068;SDS011;13887;57.196;-2.100;2023-03-01T16:48:18;13.67;;;13.17;;
22068;SDS011;13887;57.196;-2.100;2023-03-01T16:50:47;13.07;;;12.67;;
22068;SDS011;13887;57.196;-2.100;2023-03-01T16:53:23;13.10;;;12.70;;
22068;SDS011;13887;57.196;-2.100;2023-03-01T16:55:54;13.00;;;12.60;;
22068;SDS011;13887;57.196;-2.100;2023-03-01T16:58:22;12.90;;;12.50;;
22068;SDS011;13887;57.196;-2.100;2023-03-01T17:00:51;12.73;;;12.33;;
22068;SDS011;13887;57.196;-2.100;2023-03-01T17:03:22;12.80;;;12.40;;
22068;SDS011;13887;57.196;-2.100;2023-03-01T17:05:51;11.97;;;11.57;;
22068;SDS011;13887;57.196;-2.100;2023-03-01T17:08:20;12.93;;;12.53;;